createdAt,value
2022-10-23T00:02:37.775Z,14.75
2022-10-23T00:07:40.485Z,14.69
2022-10-23T00:12:43.511Z,14.59
2022-10-23T00:17:47.832Z,14.53
2022-10-23T00:22:50.788Z,14.52
2022-10-23T00:27:53.512Z,14.50
2022-10-23T00:32:57.558Z,14.50
2022-10-23T00:38:00.470Z,14.50
2022-10-23T00:43:03.793Z,14.50
2022-10-23T00:48:08.027Z,14.48
2022-10-23T00:53:13.566Z,14.45
2022-10-23T00:58:17.808Z,14.42
2022-10-23T01:03:24.848Z,14.39
2022-10-23T01:08:33.193Z,14.33
2022-10-23T01:13:44.167Z,14.24
2022-10-23T01:18:55.386Z,14.13
2022-10-23T01:24:21.533Z,14.01
2022-10-23T01:29:32.994Z,13.89
2022-10-23T01:34:44.630Z,13.81
2022-10-23T01:39:51.318Z,13.74
2022-10-23T01:45:01.316Z,13.71
2022-10-23T01:50:07.152Z,13.67
2022-10-23T01:55:13.194Z,13.65
2022-10-23T02:00:20.094Z,13.57
2022-10-23T02:05:26.150Z,13.51
2022-10-23T02:10:35.705Z,13.45
2022-10-23T02:15:46.955Z,13.38
2022-10-23T02:20:56.943Z,13.33
2022-10-23T02:26:03.103Z,13.28
2022-10-23T02:31:10.435Z,13.24
2022-10-23T02:36:13.349Z,13.23
2022-10-23T02:41:31.425Z,13.22
2022-10-23T02:46:47.988Z,13.24
2022-10-23T02:52:01.056Z,13.18
2022-10-23T02:57:10.496Z,13.10
2022-10-23T03:02:25.729Z,13.10
2022-10-23T03:07:29.061Z,13.06
2022-10-23T03:12:31.864Z,13.06
2022-10-23T03:17:35.969Z,13.09
2022-10-23T03:22:38.774Z,13.13
2022-10-23T03:27:41.543Z,13.14
2022-10-23T03:32:45.875Z,13.12
2022-10-23T03:37:48.643Z,13.13
2022-10-23T03:42:51.361Z,13.07
2022-10-23T03:47:55.457Z,12.99
2022-10-23T03:52:58.453Z,12.90
2022-10-23T03:58:01.139Z,12.87
2022-10-23T04:03:05.260Z,12.85
2022-10-23T04:08:08.001Z,12.83
2022-10-23T04:13:10.755Z,12.77
2022-10-23T04:18:14.818Z,12.69
2022-10-23T04:23:18.232Z,12.63
2022-10-23T04:28:20.936Z,12.56
2022-10-23T04:33:26.082Z,12.47
2022-10-23T04:38:28.824Z,12.40
2022-10-23T04:43:31.501Z,12.38
2022-10-23T04:48:35.568Z,12.37
2022-10-23T04:53:38.870Z,12.40
2022-10-23T04:58:41.882Z,12.44
2022-10-23T05:03:45.927Z,12.51
2022-10-23T05:08:48.650Z,12.51
2022-10-23T05:13:51.403Z,12.50
2022-10-23T05:18:55.567Z,12.50
2022-10-23T05:29:06.011Z,12.50
2022-10-23T05:34:13.467Z,12.48
2022-10-23T05:39:16.698Z,12.46
2022-10-23T05:44:19.408Z,12.42
2022-10-23T05:49:25.326Z,12.40
2022-10-23T05:54:28.030Z,12.40
2022-10-23T05:59:30.801Z,12.43
2022-10-23T06:04:35.354Z,12.45
2022-10-23T06:09:38.033Z,12.45
2022-10-23T06:14:40.728Z,12.41
2022-10-23T06:19:46.326Z,12.45
2022-10-23T06:24:49.279Z,12.45
2022-10-23T06:29:51.989Z,12.46
2022-10-23T06:34:56.138Z,12.50
2022-10-23T06:39:59.027Z,12.50
2022-10-23T06:45:04.874Z,12.52
2022-10-23T06:50:13.192Z,12.52
2022-10-23T06:55:18.646Z,12.50
2022-10-23T07:00:21.610Z,12.48
2022-10-23T07:05:25.695Z,12.51
2022-10-23T07:10:28.940Z,12.49
2022-10-23T07:15:31.649Z,12.51
2022-10-23T07:20:36.013Z,12.55
2022-10-23T07:25:39.162Z,12.60
2022-10-23T07:30:42.918Z,12.62
2022-10-23T07:35:47.433Z,12.61
2022-10-23T07:40:50.348Z,12.64
2022-10-23T07:45:53.248Z,12.68
2022-10-23T07:51:00.814Z,12.77
2022-10-23T07:56:10.663Z,12.84
2022-10-23T08:01:19.771Z,12.88
2022-10-23T08:06:24.078Z,12.92
2022-10-23T08:11:28.662Z,12.93
2022-10-23T08:16:32.272Z,12.99
2022-10-23T08:21:36.360Z,13.11
2022-10-23T08:26:39.047Z,13.15
2022-10-23T08:31:41.779Z,13.23
2022-10-23T08:36:45.825Z,13.32
2022-10-23T08:41:50.959Z,13.45
2022-10-23T08:47:01.397Z,13.67
2022-10-23T08:52:14.248Z,13.72
2022-10-23T08:57:19.213Z,13.84
2022-10-23T09:02:25.573Z,14.02
2022-10-23T09:07:40.461Z,14.11
2022-10-23T09:12:43.839Z,14.26
2022-10-23T09:17:47.814Z,14.27
2022-10-23T09:22:55.182Z,14.51
2022-10-23T09:28:02.910Z,14.63
2022-10-23T09:33:17.622Z,14.72
2022-10-23T09:38:28.645Z,14.80
2022-10-23T09:43:31.456Z,14.97
2022-10-23T09:48:35.449Z,15.18
2022-10-23T09:53:49.230Z,15.42
2022-10-23T09:58:57.015Z,15.54
2022-10-23T10:03:59.936Z,15.79
2022-10-23T10:09:09.053Z,15.93
2022-10-23T10:14:32.161Z,16.17
2022-10-23T10:19:50.396Z,16.63
2022-10-23T10:25:01.317Z,16.81
2022-10-23T10:30:11.617Z,17.07
2022-10-23T10:35:26.617Z,17.17
2022-10-23T10:40:34.268Z,17.31
2022-10-23T10:45:39.704Z,17.63
2022-10-23T10:50:48.673Z,17.90
2022-10-23T10:55:55.510Z,17.98
2022-10-23T11:01:03.023Z,18.03
2022-10-23T11:06:10.729Z,18.08
2022-10-23T11:11:20.075Z,18.21
2022-10-23T11:16:27.538Z,18.20
2022-10-23T11:21:38.547Z,18.34
2022-10-23T11:26:53.596Z,18.53
2022-10-23T11:32:12.521Z,18.63
2022-10-23T11:37:18.106Z,18.66
2022-10-23T11:42:34.126Z,18.73
2022-10-23T11:47:40.347Z,18.83
2022-10-23T11:53:15.014Z,18.84
2022-10-23T11:58:32.514Z,18.99
2022-10-23T12:03:42.782Z,19.03
2022-10-23T12:08:52.784Z,19.08
2022-10-23T12:13:57.149Z,19.00
2022-10-23T12:19:19.629Z,19.05
2022-10-23T12:24:55.225Z,19.28
2022-10-23T12:30:20.253Z,19.47
2022-10-23T12:35:34.542Z,19.53
2022-10-23T12:40:37.375Z,19.64
2022-10-23T12:45:44.745Z,19.79
2022-10-23T12:50:50.562Z,19.89
2022-10-23T13:01:08.212Z,19.85
2022-10-23T13:06:12.536Z,19.83
2022-10-23T13:11:18.093Z,19.81
2022-10-23T13:16:23.929Z,19.81
2022-10-23T13:21:29.446Z,19.78
2022-10-23T13:26:35.877Z,19.77
2022-10-23T13:31:40.146Z,19.57
2022-10-23T13:36:53.619Z,18.97
2022-10-23T13:41:57.042Z,18.73
2022-10-23T13:47:01.164Z,18.61
2022-10-23T13:52:03.866Z,18.54
2022-10-23T13:57:13.777Z,18.53
2022-10-23T14:02:21.500Z,18.50
2022-10-23T14:07:24.653Z,18.57
2022-10-23T14:12:27.744Z,18.45
2022-10-23T14:17:31.832Z,18.30
2022-10-23T14:22:34.971Z,18.18
2022-10-23T14:27:37.680Z,18.16
2022-10-23T14:32:42.184Z,17.99
2022-10-23T14:37:45.481Z,17.77
2022-10-23T14:42:48.667Z,17.66
2022-10-23T14:47:52.769Z,17.70
2022-10-23T14:52:55.542Z,17.55
2022-10-23T14:57:58.703Z,17.42
2022-10-23T15:03:02.881Z,17.27
2022-10-23T15:08:05.740Z,17.17
2022-10-23T15:13:08.698Z,17.06
2022-10-23T15:18:12.839Z,17.01
2022-10-23T15:23:15.547Z,16.95
2022-10-23T15:28:18.567Z,16.86
2022-10-23T15:33:23.406Z,16.74
2022-10-23T15:38:26.184Z,16.68
2022-10-23T15:43:28.908Z,16.68
2022-10-23T15:48:32.989Z,16.58
2022-10-23T15:53:35.845Z,16.45
2022-10-23T15:58:38.563Z,16.31
2022-10-23T16:03:43.108Z,16.27
2022-10-23T16:08:46.306Z,16.21
2022-10-23T16:13:49.058Z,16.18
2022-10-23T16:18:53.509Z,16.23
2022-10-23T16:23:58.164Z,16.20
2022-10-23T16:29:02.744Z,16.15
2022-10-23T16:34:07.794Z,16.09
2022-10-23T16:39:17.918Z,16.02
2022-10-23T16:44:20.637Z,15.94
2022-10-23T16:49:24.746Z,15.86
2022-10-23T16:54:27.462Z,15.77
2022-10-23T16:59:30.238Z,15.75
2022-10-23T17:04:34.633Z,15.69
2022-10-23T17:09:38.398Z,15.54
2022-10-23T17:14:41.448Z,15.44
2022-10-23T17:19:46.674Z,15.42
2022-10-23T17:24:52.994Z,15.41
2022-10-23T17:29:56.899Z,15.32
2022-10-23T17:35:01.027Z,15.28
2022-10-23T17:40:05.065Z,15.21
2022-10-23T17:45:08.967Z,15.14
2022-10-23T17:50:13.844Z,15.08
2022-10-23T17:55:16.730Z,15.03
2022-10-23T18:00:19.647Z,14.96
2022-10-23T18:05:23.806Z,14.92
2022-10-23T18:10:26.604Z,14.89
2022-10-23T18:15:29.382Z,14.82
2022-10-23T18:20:33.511Z,14.77
2022-10-23T18:25:36.479Z,14.72
2022-10-23T18:30:39.389Z,14.66
2022-10-23T18:35:43.865Z,14.63
2022-10-23T18:40:46.629Z,14.58
2022-10-23T18:45:49.460Z,14.56
2022-10-23T18:50:53.662Z,14.54
2022-10-23T18:55:56.550Z,14.52
2022-10-23T19:00:59.377Z,14.50
2022-10-23T19:06:03.521Z,14.49
2022-10-23T19:11:07.398Z,14.50
2022-10-23T19:16:15.755Z,14.53
2022-10-23T19:21:21.432Z,14.54
2022-10-23T19:26:24.274Z,14.50
2022-10-23T19:31:27.330Z,14.44
2022-10-23T19:36:32.412Z,14.45
2022-10-23T19:41:35.240Z,14.46
2022-10-23T19:46:38.771Z,14.49
2022-10-23T19:51:50.406Z,14.48
2022-10-23T19:56:53.894Z,14.51
2022-10-23T20:01:56.712Z,14.55
2022-10-23T20:07:01.366Z,14.55
2022-10-23T20:12:05.027Z,14.50
2022-10-23T20:17:07.889Z,14.47
2022-10-23T20:22:12.060Z,14.41
2022-10-23T20:27:14.797Z,14.40
2022-10-23T20:32:17.516Z,14.42
2022-10-23T20:37:21.712Z,14.42
2022-10-23T20:42:24.438Z,14.41
2022-10-23T20:47:27.202Z,14.34
2022-10-23T20:57:35.894Z,14.38
2022-10-23T21:02:38.733Z,14.34
2022-10-23T21:07:42.861Z,14.29
2022-10-23T21:12:45.821Z,14.25
2022-10-23T21:17:50.573Z,14.23
2022-10-23T21:22:55.451Z,14.24
2022-10-23T21:27:58.172Z,14.32
2022-10-23T21:33:00.891Z,14.40
2022-10-23T21:38:04.985Z,14.42
2022-10-23T21:43:08.795Z,14.43
2022-10-23T21:48:13.869Z,14.43
2022-10-23T21:53:17.933Z,14.43
2022-10-23T21:58:20.654Z,14.44
2022-10-23T22:03:23.340Z,14.44
2022-10-23T22:08:27.448Z,14.43
2022-10-23T22:13:30.142Z,14.39
2022-10-23T22:18:32.880Z,14.37
2022-10-23T22:23:38.226Z,14.38
2022-10-23T22:28:40.938Z,14.40
2022-10-23T22:33:43.637Z,14.39
2022-10-23T22:38:48.229Z,14.36
2022-10-23T22:43:55.507Z,14.35
2022-10-23T22:48:59.216Z,14.36
2022-10-23T22:54:03.296Z,14.38
2022-10-23T22:59:06.257Z,14.38
2022-10-23T23:04:32.933Z,14.38
2022-10-23T23:09:36.127Z,14.42
2022-10-23T23:14:39.551Z,14.47
2022-10-23T23:19:42.250Z,14.50
2022-10-23T23:24:46.323Z,14.54
2022-10-23T23:29:49.109Z,14.57
2022-10-23T23:34:51.908Z,14.60
2022-10-23T23:39:56.220Z,14.60
2022-10-23T23:45:10.048Z,14.65
2022-10-23T23:50:16.598Z,14.66
2022-10-23T23:55:20.897Z,14.67
